ACM192 YWYY-YSRN
Flight info
| Callsign | ACM192 |
|---|---|
| Flight time | 1h 0m |
| Altitude | 3000 |
| Route | VFR SOUTH ROAD ROUTE YWYY NABAGEENA YBFR YSRN |
| Aircraft | C172/L-SDE3/C |
Departure
| Time | 2026-05-05 19:23 |
|---|---|
| Airport | Wynyard Airport (YWYY) |
Arrival
| Time | 2026-05-05 20:24 |
|---|---|
| Airport | Strahan Airport (YSRN) |
| Time | Latitude | Longitude | Altitude | Speed | Heading |
|---|---|---|---|---|---|
| 2026-05-05 19:09 | -40.99342 | 145.72062 | 74 ft | 0 kts | 89° |
| 2026-05-05 19:16 | -40.99343 | 145.72065 | 74 ft | 5 kts | 146° |
| 2026-05-05 19:16 | -40.99380 | 145.72047 | 73 ft | 3 kts | 206° |
| 2026-05-05 19:16 | -40.99387 | 145.72044 | 74 ft | 0 kts | 189° |
| 2026-05-05 19:17 | -40.99411 | 145.72041 | 74 ft | 12 kts | 184° |
| 2026-05-05 19:17 | -40.99472 | 145.72117 | 75 ft | 19 kts | 94° |
| 2026-05-05 19:18 | -40.99481 | 145.72321 | 74 ft | 26 kts | 93° |
| 2026-05-05 19:18 | -40.99490 | 145.72497 | 68 ft | 14 kts | 95° |
| 2026-05-05 19:18 | -40.99499 | 145.72668 | 62 ft | 21 kts | 97° |
| 2026-05-05 19:18 | -40.99509 | 145.72855 | 53 ft | 14 kts | 88° |
| 2026-05-05 19:19 | -40.99509 | 145.72881 | 51 ft | 0 kts | 91° |
| 2026-05-05 19:20 | -40.99529 | 145.72932 | 49 ft | 3 kts | 158° |
| 2026-05-05 19:21 | -40.99532 | 145.72934 | 49 ft | 4 kts | 158° |
| 2026-05-05 19:21 | -40.99584 | 145.72937 | 49 ft | 5 kts | 253° |
| 2026-05-05 19:21 | -40.99586 | 145.72920 | 50 ft | 0 kts | 244° |
| 2026-05-05 19:22 | -40.99620 | 145.72824 | 57 ft | 35 kts | 242° |
| 2026-05-05 19:22 | -40.99768 | 145.72407 | 155 ft | 59 kts | 248° |
| 2026-05-05 19:22 | -40.99982 | 145.71864 | 275 ft | 74 kts | 243° |
| 2026-05-05 19:23 | -41.00318 | 145.71326 | 441 ft | 82 kts | 217° |
| 2026-05-05 19:23 | -41.00780 | 145.70853 | 649 ft | 89 kts | 226° |
| 2026-05-05 19:23 | -41.01225 | 145.70172 | 732 ft | 101 kts | 251° |
| 2026-05-05 19:23 | -41.01223 | 145.69272 | 917 ft | 101 kts | 286° |
| 2026-05-05 19:24 | -41.00961 | 145.68413 | 1039 ft | 100 kts | 294° |
| 2026-05-05 19:24 | -41.00685 | 145.67563 | 1136 ft | 101 kts | 288° |
| 2026-05-05 19:24 | -41.00605 | 145.66649 | 1192 ft | 101 kts | 268° |
| 2026-05-05 19:24 | -41.00699 | 145.65731 | 1269 ft | 102 kts | 265° |
| 2026-05-05 19:25 | -41.00789 | 145.64827 | 1389 ft | 97 kts | 272° |
| 2026-05-05 19:25 | -41.00656 | 145.64002 | 1583 ft | 94 kts | 288° |
| 2026-05-05 19:25 | -41.00411 | 145.63215 | 1727 ft | 92 kts | 289° |
| 2026-05-05 19:25 | -41.00274 | 145.62407 | 1809 ft | 86 kts | 275° |
| 2026-05-05 19:26 | -41.00240 | 145.61610 | 1815 ft | 88 kts | 274° |
| 2026-05-05 19:26 | -41.00190 | 145.60828 | 1913 ft | 85 kts | 277° |
| 2026-05-05 19:26 | -41.00124 | 145.60034 | 1957 ft | 89 kts | 277° |
| 2026-05-05 19:26 | -41.00047 | 145.59252 | 2045 ft | 80 kts | 278° |
| 2026-05-05 19:27 | -40.99983 | 145.58520 | 2106 ft | 82 kts | 278° |
| 2026-05-05 19:27 | -40.99904 | 145.57761 | 2223 ft | 84 kts | 279° |
| 2026-05-05 19:27 | -40.99822 | 145.56984 | 2330 ft | 86 kts | 277° |
| 2026-05-05 19:27 | -40.99749 | 145.56205 | 2458 ft | 85 kts | 278° |
| 2026-05-05 19:28 | -40.99665 | 145.55700 | 2523 ft | 86 kts | 282° |
| 2026-05-05 19:28 | -40.99472 | 145.54686 | 2673 ft | 83 kts | 280° |
| 2026-05-05 19:28 | -40.99449 | 145.54173 | 2705 ft | 88 kts | 269° |
| 2026-05-05 19:28 | -40.99508 | 145.53367 | 2841 ft | 85 kts | 267° |
| 2026-05-05 19:29 | -40.99545 | 145.52625 | 2968 ft | 85 kts | 272° |
| 2026-05-05 19:29 | -40.99546 | 145.51890 | 3015 ft | 87 kts | 272° |
| 2026-05-05 19:29 | -40.99559 | 145.51101 | 3080 ft | 85 kts | 271° |
| 2026-05-05 19:29 | -40.99620 | 145.50291 | 3030 ft | 91 kts | 272° |
| 2026-05-05 19:30 | -40.99588 | 145.49490 | 3020 ft | 85 kts | 287° |
| 2026-05-05 19:30 | -40.99433 | 145.48754 | 3104 ft | 83 kts | 288° |
| 2026-05-05 19:30 | -40.99184 | 145.48009 | 3072 ft | 89 kts | 294° |
| 2026-05-05 19:30 | -40.98952 | 145.47265 | 3104 ft | 88 kts | 291° |
| 2026-05-05 19:31 | -40.98730 | 145.46488 | 3097 ft | 90 kts | 285° |
| 2026-05-05 19:31 | -40.98612 | 145.45676 | 3086 ft | 92 kts | 279° |
| 2026-05-05 19:31 | -40.98571 | 145.44815 | 2998 ft | 96 kts | 272° |
| 2026-05-05 19:31 | -40.98607 | 145.43938 | 2962 ft | 95 kts | 271° |
| 2026-05-05 19:32 | -40.98661 | 145.43058 | 2892 ft | 95 kts | 268° |
| 2026-05-05 19:32 | -40.98710 | 145.42178 | 2882 ft | 98 kts | 271° |
| 2026-05-05 19:32 | -40.98745 | 145.41306 | 2901 ft | 96 kts | 269° |
| 2026-05-05 19:32 | -40.98819 | 145.40421 | 2881 ft | 95 kts | 267° |
| 2026-05-05 19:33 | -40.98867 | 145.39572 | 2948 ft | 93 kts | 271° |
| 2026-05-05 19:33 | -40.98892 | 145.38710 | 3011 ft | 91 kts | 270° |
| 2026-05-05 19:33 | -40.98919 | 145.37840 | 2973 ft | 97 kts | 272° |
| 2026-05-05 19:33 | -40.98897 | 145.36966 | 3027 ft | 95 kts | 273° |
| 2026-05-05 19:34 | -40.98873 | 145.36067 | 3024 ft | 99 kts | 275° |
| 2026-05-05 19:34 | -40.98821 | 145.35146 | 2993 ft | 102 kts | 274° |
| 2026-05-05 19:34 | -40.98782 | 145.34222 | 3026 ft | 100 kts | 276° |
| 2026-05-05 19:35 | -40.98722 | 145.32363 | 2950 ft | 100 kts | 272° |
| 2026-05-05 19:35 | -40.98726 | 145.31447 | 2903 ft | 100 kts | 271° |
| 2026-05-05 19:35 | -40.98748 | 145.30502 | 2742 ft | 103 kts | 275° |
| 2026-05-05 19:35 | -40.98677 | 145.29615 | 2764 ft | 94 kts | 277° |
| 2026-05-05 19:36 | -40.98674 | 145.28721 | 2725 ft | 93 kts | 272° |
| 2026-05-05 19:36 | -40.98692 | 145.27888 | 2766 ft | 87 kts | 274° |
| 2026-05-05 19:36 | -40.98682 | 145.27089 | 2800 ft | 88 kts | 274° |
| 2026-05-05 19:36 | -40.98664 | 145.26291 | 2868 ft | 86 kts | 275° |
| 2026-05-05 19:37 | -40.98628 | 145.25484 | 2905 ft | 88 kts | 276° |
| 2026-05-05 19:37 | -40.98598 | 145.24683 | 2962 ft | 87 kts | 274° |
| 2026-05-05 19:37 | -40.98572 | 145.23878 | 3009 ft | 88 kts | 274° |
| 2026-05-05 19:37 | -40.98619 | 145.23077 | 3133 ft | 88 kts | 266° |
| 2026-05-05 19:38 | -40.98722 | 145.22279 | 3169 ft | 90 kts | 265° |
| 2026-05-05 19:38 | -40.98849 | 145.21435 | 3155 ft | 96 kts | 263° |
| 2026-05-05 19:38 | -40.98994 | 145.20599 | 3302 ft | 90 kts | 259° |
| 2026-05-05 19:38 | -40.99189 | 145.19753 | 3233 ft | 100 kts | 257° |
| 2026-05-05 19:39 | -40.99408 | 145.18869 | 3232 ft | 102 kts | 257° |
| 2026-05-05 19:39 | -40.99633 | 145.17977 | 3188 ft | 103 kts | 258° |
| 2026-05-05 19:39 | -40.99895 | 145.17096 | 3129 ft | 104 kts | 253° |
| 2026-05-05 19:39 | -41.00253 | 145.16242 | 3079 ft | 108 kts | 247° |
| 2026-05-05 19:40 | -41.00722 | 145.15435 | 3049 ft | 113 kts | 235° |
| 2026-05-05 19:40 | -41.01349 | 145.14801 | 3044 ft | 115 kts | 227° |
| 2026-05-05 19:40 | -41.01998 | 145.14182 | 2995 ft | 113 kts | 229° |
| 2026-05-05 19:40 | -41.02608 | 145.13549 | 2988 ft | 110 kts | 231° |
| 2026-05-05 19:41 | -41.03198 | 145.12923 | 3022 ft | 109 kts | 232° |
| 2026-05-05 19:41 | -41.03779 | 145.12270 | 3026 ft | 110 kts | 233° |
| 2026-05-05 19:41 | -41.04370 | 145.11613 | 3000 ft | 111 kts | 233° |
| 2026-05-05 19:41 | -41.04969 | 145.10964 | 2970 ft | 110 kts | 230° |
| 2026-05-05 19:42 | -41.05583 | 145.10347 | 2959 ft | 111 kts | 230° |
| 2026-05-05 19:42 | -41.06227 | 145.09731 | 2931 ft | 118 kts | 225° |
| 2026-05-05 19:42 | -41.06933 | 145.09195 | 2963 ft | 115 kts | 223° |
| 2026-05-05 19:42 | -41.07561 | 145.08588 | 2976 ft | 110 kts | 231° |
| 2026-05-05 19:43 | -41.08181 | 145.08006 | 3007 ft | 112 kts | 226° |
| 2026-05-05 19:43 | -41.08845 | 145.07413 | 2977 ft | 114 kts | 226° |
| 2026-05-05 19:43 | -41.09522 | 145.06854 | 2926 ft | 118 kts | 224° |
| 2026-05-05 19:43 | -41.10222 | 145.06288 | 2843 ft | 116 kts | 224° |
| 2026-05-05 19:44 | -41.10904 | 145.05736 | 2731 ft | 114 kts | 226° |
| 2026-05-05 19:44 | -41.11527 | 145.05085 | 2574 ft | 112 kts | 235° |
| 2026-05-05 19:44 | -41.12098 | 145.04396 | 2463 ft | 112 kts | 232° |
| 2026-05-05 19:44 | -41.12714 | 145.03748 | 2243 ft | 110 kts | 227° |
| 2026-05-05 19:45 | -41.13288 | 145.03166 | 2239 ft | 97 kts | 231° |
| 2026-05-05 19:45 | -41.13837 | 145.02603 | 2280 ft | 100 kts | 230° |
| 2026-05-05 19:45 | -41.14404 | 145.02033 | 2339 ft | 105 kts | 231° |
| 2026-05-05 19:45 | -41.15000 | 145.01503 | 2468 ft | 104 kts | 224° |
| 2026-05-05 19:46 | -41.15649 | 145.01003 | 2520 ft | 111 kts | 221° |
| 2026-05-05 19:46 | -41.16333 | 145.00542 | 2653 ft | 110 kts | 219° |
| 2026-05-05 19:46 | -41.17056 | 145.00111 | 2671 ft | 119 kts | 217° |
| 2026-05-05 19:46 | -41.17844 | 144.99679 | 2635 ft | 125 kts | 213° |
| 2026-05-05 19:47 | -41.18627 | 144.99352 | 2699 ft | 124 kts | 211° |
| 2026-05-05 19:47 | -41.19491 | 144.99121 | 2715 ft | 124 kts | 203° |
| 2026-05-05 19:47 | -41.20323 | 144.98875 | 2754 ft | 122 kts | 212° |
| 2026-05-05 19:47 | -41.21057 | 144.98407 | 2842 ft | 112 kts | 224° |
| 2026-05-05 19:48 | -41.21651 | 144.97790 | 2795 ft | 107 kts | 239° |
| 2026-05-05 19:48 | -41.22129 | 144.97037 | 2707 ft | 106 kts | 243° |
| 2026-05-05 19:48 | -41.22586 | 144.96277 | 2620 ft | 107 kts | 241° |
| 2026-05-05 19:48 | -41.23033 | 144.95508 | 2544 ft | 102 kts | 251° |
| 2026-05-05 19:49 | -41.23208 | 144.94629 | 2482 ft | 95 kts | 272° |
| 2026-05-05 19:49 | -41.23136 | 144.94059 | 2485 ft | 92 kts | 289° |
| 2026-05-05 19:49 | -41.22476 | 144.93334 | 2507 ft | 105 kts | 337° |
| 2026-05-05 19:49 | -41.21708 | 144.93467 | 2512 ft | 120 kts | 8° |
| 2026-05-05 19:50 | -41.21039 | 144.94216 | 2489 ft | 138 kts | 51° |
| 2026-05-05 19:50 | -41.20893 | 144.95516 | 2455 ft | 153 kts | 96° |
| 2026-05-05 19:50 | -41.21332 | 144.96765 | 2454 ft | 148 kts | 135° |
| 2026-05-05 19:50 | -41.22129 | 144.97467 | 2487 ft | 129 kts | 176° |
| 2026-05-05 19:51 | -41.22898 | 144.97275 | 2376 ft | 107 kts | 236° |
| 2026-05-05 19:51 | -41.23059 | 144.96441 | 2399 ft | 89 kts | 275° |
| 2026-05-05 19:51 | -41.23023 | 144.95624 | 2406 ft | 87 kts | 278° |
| 2026-05-05 19:51 | -41.22995 | 144.94837 | 2465 ft | 86 kts | 270° |
| 2026-05-05 19:52 | -41.23202 | 144.94044 | 2413 ft | 101 kts | 248° |
| 2026-05-05 19:52 | -41.23583 | 144.93226 | 2331 ft | 107 kts | 244° |
| 2026-05-05 19:52 | -41.24039 | 144.92397 | 2097 ft | 110 kts | 244° |
| 2026-05-05 19:52 | -41.24445 | 144.91574 | 1915 ft | 102 kts | 249° |
| 2026-05-05 19:53 | -41.24807 | 144.90771 | 1685 ft | 103 kts | 250° |
| 2026-05-05 19:53 | -41.25142 | 144.90008 | 1423 ft | 85 kts | 242° |
| 2026-05-05 19:53 | -41.25458 | 144.89444 | 1192 ft | 67 kts | 248° |
| 2026-05-05 19:53 | -41.25743 | 144.88902 | 952 ft | 75 kts | 246° |
| 2026-05-05 19:54 | -41.25986 | 144.88444 | 839 ft | 46 kts | 256° |
| 2026-05-05 19:54 | -41.26151 | 144.87994 | 973 ft | 64 kts | 249° |
| 2026-05-05 19:54 | -41.26488 | 144.87450 | 1090 ft | 88 kts | 226° |
| 2026-05-05 19:54 | -41.27132 | 144.87231 | 1278 ft | 106 kts | 194° |
| 2026-05-05 19:55 | -41.27905 | 144.87213 | 1358 ft | 115 kts | 189° |
| 2026-05-05 19:55 | -41.28699 | 144.87319 | 1544 ft | 119 kts | 173° |
| 2026-05-05 19:55 | -41.29430 | 144.87998 | 1557 ft | 136 kts | 130° |
| 2026-05-05 19:55 | -41.29680 | 144.89210 | 1605 ft | 138 kts | 75° |
| 2026-05-05 19:56 | -41.29271 | 144.90298 | 1672 ft | 128 kts | 35° |
| 2026-05-05 19:56 | -41.28570 | 144.90897 | 1819 ft | 113 kts | 2° |
| 2026-05-05 19:56 | -41.27857 | 144.90846 | 1941 ft | 97 kts | 330° |
| 2026-05-05 19:56 | -41.27216 | 144.90515 | 2017 ft | 100 kts | 327° |
| 2026-05-05 19:57 | -41.26628 | 144.90085 | 2106 ft | 93 kts | 309° |
| 2026-05-05 19:57 | -41.26410 | 144.89605 | 2101 ft | 94 kts | 283° |
| 2026-05-05 19:57 | -41.26719 | 144.88467 | 2073 ft | 110 kts | 233° |
| 2026-05-05 19:57 | -41.27457 | 144.88057 | 2244 ft | 121 kts | 202° |
| 2026-05-05 19:58 | -41.28325 | 144.87905 | 2319 ft | 126 kts | 199° |
| 2026-05-05 19:58 | -41.29210 | 144.87828 | 2401 ft | 132 kts | 194° |
| 2026-05-05 19:58 | -41.30138 | 144.87960 | 2443 ft | 137 kts | 178° |
| 2026-05-05 19:58 | -41.31072 | 144.88333 | 2460 ft | 139 kts | 172° |
| 2026-05-05 19:59 | -41.32015 | 144.88735 | 2410 ft | 145 kts | 171° |
| 2026-05-05 19:59 | -41.32921 | 144.89232 | 2481 ft | 142 kts | 163° |
| 2026-05-05 19:59 | -41.33808 | 144.89897 | 2427 ft | 146 kts | 159° |
| 2026-05-05 19:59 | -41.34755 | 144.90363 | 2431 ft | 140 kts | 178° |
| 2026-05-05 20:00 | -41.35683 | 144.90537 | 2508 ft | 133 kts | 185° |
| 2026-05-05 20:00 | -41.36619 | 144.90677 | 2441 ft | 138 kts | 183° |
| 2026-05-05 20:00 | -41.37555 | 144.90903 | 2504 ft | 137 kts | 179° |
| 2026-05-05 20:00 | -41.38490 | 144.91152 | 2516 ft | 139 kts | 178° |
| 2026-05-05 20:01 | -41.39440 | 144.91450 | 2539 ft | 139 kts | 175° |
| 2026-05-05 20:01 | -41.40391 | 144.91733 | 2573 ft | 141 kts | 178° |
| 2026-05-05 20:01 | -41.41383 | 144.91970 | 2539 ft | 148 kts | 177° |
| 2026-05-05 20:01 | -41.42382 | 144.92369 | 2501 ft | 152 kts | 170° |
| 2026-05-05 20:02 | -41.43394 | 144.92771 | 2472 ft | 151 kts | 176° |
| 2026-05-05 20:02 | -41.44409 | 144.93077 | 2460 ft | 149 kts | 177° |
| 2026-05-05 20:02 | -41.45405 | 144.93371 | 2463 ft | 146 kts | 175° |
| 2026-05-05 20:02 | -41.46385 | 144.93752 | 2444 ft | 147 kts | 171° |
| 2026-05-05 20:03 | -41.47358 | 144.94225 | 2421 ft | 150 kts | 167° |
| 2026-05-05 20:03 | -41.48329 | 144.94752 | 2384 ft | 152 kts | 163° |
| 2026-05-05 20:03 | -41.49306 | 144.95179 | 2397 ft | 142 kts | 175° |
| 2026-05-05 20:03 | -41.50266 | 144.95539 | 2394 ft | 144 kts | 174° |
| 2026-05-05 20:04 | -41.51232 | 144.95938 | 2442 ft | 146 kts | 169° |
| 2026-05-05 20:04 | -41.52172 | 144.96486 | 2390 ft | 150 kts | 160° |
| 2026-05-05 20:04 | -41.53089 | 144.97180 | 2351 ft | 150 kts | 155° |
| 2026-05-05 20:04 | -41.54005 | 144.97874 | 2265 ft | 151 kts | 160° |
| 2026-05-05 20:05 | -41.54922 | 144.98477 | 2399 ft | 146 kts | 162° |
| 2026-05-05 20:05 | -41.55847 | 144.99143 | 2329 ft | 153 kts | 156° |
| 2026-05-05 20:05 | -41.56771 | 144.99839 | 2302 ft | 151 kts | 162° |
| 2026-05-05 20:05 | -41.57720 | 145.00387 | 2336 ft | 149 kts | 168° |
| 2026-05-05 20:06 | -41.58687 | 145.00903 | 2362 ft | 151 kts | 166° |
| 2026-05-05 20:06 | -41.59664 | 145.01385 | 2317 ft | 151 kts | 172° |
| 2026-05-05 20:06 | -41.60666 | 145.01789 | 2263 ft | 148 kts | 173° |
| 2026-05-05 20:06 | -41.61660 | 145.02067 | 2231 ft | 143 kts | 182° |
| 2026-05-05 20:07 | -41.62638 | 145.02291 | 2236 ft | 143 kts | 181° |
| 2026-05-05 20:07 | -41.63619 | 145.02507 | 2254 ft | 142 kts | 180° |
| 2026-05-05 20:07 | -41.64587 | 145.02803 | 2279 ft | 143 kts | 175° |
| 2026-05-05 20:07 | -41.65555 | 145.03260 | 2262 ft | 152 kts | 170° |
| 2026-05-05 20:08 | -41.66503 | 145.03714 | 2185 ft | 134 kts | 166° |
| 2026-05-05 20:08 | -41.67391 | 145.04129 | 2171 ft | 139 kts | 168° |
| 2026-05-05 20:08 | -41.68328 | 145.04645 | 2105 ft | 152 kts | 164° |
| 2026-05-05 20:08 | -41.69307 | 145.05194 | 2105 ft | 149 kts | 172° |
| 2026-05-05 20:09 | -41.70302 | 145.05349 | 1996 ft | 141 kts | 194° |
| 2026-05-05 20:09 | -41.71243 | 145.05160 | 1967 ft | 135 kts | 204° |
| 2026-05-05 20:09 | -41.72182 | 145.04926 | 1914 ft | 139 kts | 202° |
| 2026-05-05 20:09 | -41.73112 | 145.04675 | 1893 ft | 135 kts | 206° |
| 2026-05-05 20:10 | -41.73981 | 145.04285 | 1815 ft | 132 kts | 213° |
| 2026-05-05 20:10 | -41.74808 | 145.03819 | 1867 ft | 126 kts | 218° |
| 2026-05-05 20:10 | -41.75593 | 145.03281 | 1851 ft | 127 kts | 221° |
| 2026-05-05 20:10 | -41.76342 | 145.02689 | 1941 ft | 118 kts | 227° |
| 2026-05-05 20:11 | -41.77071 | 145.02091 | 1948 ft | 132 kts | 218° |
| 2026-05-05 20:11 | -41.77994 | 145.01833 | 2020 ft | 139 kts | 191° |
| 2026-05-05 20:11 | -41.78870 | 145.01966 | 1959 ft | 148 kts | 176° |
| 2026-05-05 20:11 | -41.79799 | 145.02451 | 1963 ft | 152 kts | 158° |
| 2026-05-05 20:12 | -41.80723 | 145.03192 | 1908 ft | 158 kts | 151° |
| 2026-05-05 20:12 | -41.81632 | 145.04055 | 1810 ft | 162 kts | 148° |
| 2026-05-05 20:12 | -41.82550 | 145.04913 | 1697 ft | 162 kts | 150° |
| 2026-05-05 20:12 | -41.83483 | 145.05738 | 1573 ft | 159 kts | 154° |
| 2026-05-05 20:13 | -41.84448 | 145.06437 | 1475 ft | 158 kts | 157° |
| 2026-05-05 20:13 | -41.85409 | 145.07146 | 1438 ft | 157 kts | 155° |
| 2026-05-05 20:13 | -41.86344 | 145.07921 | 1374 ft | 158 kts | 149° |
| 2026-05-05 20:13 | -41.87250 | 145.08807 | 1225 ft | 162 kts | 146° |
| 2026-05-05 20:14 | -41.88125 | 145.09703 | 1221 ft | 155 kts | 144° |
| 2026-05-05 20:14 | -41.88947 | 145.10591 | 1249 ft | 150 kts | 143° |
| 2026-05-05 20:14 | -41.89740 | 145.11498 | 1289 ft | 151 kts | 141° |
| 2026-05-05 20:14 | -41.90523 | 145.12450 | 1332 ft | 153 kts | 139° |
| 2026-05-05 20:15 | -41.91030 | 145.13098 | 1362 ft | 151 kts | 137° |
| 2026-05-05 20:15 | -41.91770 | 145.14096 | 1416 ft | 151 kts | 137° |
| 2026-05-05 20:15 | -41.92495 | 145.15133 | 1463 ft | 153 kts | 134° |
| 2026-05-05 20:15 | -41.93204 | 145.16208 | 1516 ft | 154 kts | 132° |
| 2026-05-05 20:16 | -41.94203 | 145.17553 | 1585 ft | 153 kts | 142° |
| 2026-05-05 20:16 | -41.95076 | 145.18362 | 1579 ft | 152 kts | 155° |
| 2026-05-05 20:16 | -41.96027 | 145.18982 | 1655 ft | 153 kts | 161° |
| 2026-05-05 20:16 | -41.96690 | 145.19410 | 1620 ft | 159 kts | 159° |
| 2026-05-05 20:17 | -41.97700 | 145.19995 | 1602 ft | 158 kts | 161° |
| 2026-05-05 20:17 | -41.98690 | 145.20618 | 1563 ft | 156 kts | 159° |
| 2026-05-05 20:17 | -41.99659 | 145.21264 | 1497 ft | 155 kts | 156° |
| 2026-05-05 20:17 | -42.00618 | 145.21975 | 1402 ft | 159 kts | 153° |
| 2026-05-05 20:18 | -42.01578 | 145.22728 | 1372 ft | 158 kts | 159° |
| 2026-05-05 20:18 | -42.02587 | 145.23277 | 1385 ft | 156 kts | 165° |
| 2026-05-05 20:18 | -42.03597 | 145.23762 | 1402 ft | 158 kts | 163° |
| 2026-05-05 20:18 | -42.04636 | 145.24293 | 1421 ft | 161 kts | 165° |
| 2026-05-05 20:19 | -42.05689 | 145.24838 | 1342 ft | 163 kts | 166° |
| 2026-05-05 20:19 | -42.06744 | 145.25312 | 1326 ft | 158 kts | 171° |
| 2026-05-05 20:19 | -42.07798 | 145.25511 | 1290 ft | 149 kts | 184° |
| 2026-05-05 20:19 | -42.08788 | 145.25658 | 1261 ft | 138 kts | 182° |
| 2026-05-05 20:20 | -42.09650 | 145.25808 | 1244 ft | 116 kts | 182° |
| 2026-05-05 20:20 | -42.10457 | 145.25966 | 1153 ft | 120 kts | 180° |
| 2026-05-05 20:20 | -42.11241 | 145.26122 | 1187 ft | 112 kts | 183° |
| 2026-05-05 20:20 | -42.12058 | 145.26304 | 1221 ft | 126 kts | 182° |
| 2026-05-05 20:21 | -42.12948 | 145.26429 | 1218 ft | 129 kts | 185° |
| 2026-05-05 20:21 | -42.13853 | 145.26446 | 1137 ft | 128 kts | 191° |
| 2026-05-05 20:21 | -42.14736 | 145.26359 | 1046 ft | 119 kts | 197° |
| 2026-05-05 20:21 | -42.15492 | 145.26188 | 976 ft | 101 kts | 204° |
| 2026-05-05 20:22 | -42.16140 | 145.25962 | 1033 ft | 95 kts | 213° |
| 2026-05-05 20:22 | -42.16816 | 145.25726 | 1007 ft | 105 kts | 200° |
| 2026-05-05 20:22 | -42.17448 | 145.25959 | 1046 ft | 98 kts | 137° |
| 2026-05-05 20:22 | -42.17698 | 145.26789 | 1082 ft | 95 kts | 95° |
| 2026-05-05 20:23 | -42.17845 | 145.27658 | 1136 ft | 92 kts | 78° |
| 2026-05-05 20:23 | -42.17630 | 145.28384 | 956 ft | 80 kts | 17° |
| 2026-05-05 20:23 | -42.17154 | 145.28559 | 652 ft | 67 kts | 357° |
| 2026-05-05 20:23 | -42.16718 | 145.28688 | 438 ft | 61 kts | 355° |
| 2026-05-05 20:24 | -42.16322 | 145.28797 | 205 ft | 58 kts | 355° |
| 2026-05-05 20:24 | -42.15960 | 145.28893 | 100 ft | 45 kts | 358° |
| 2026-05-05 20:24 | -42.15748 | 145.28943 | 94 ft | 24 kts | 9° |
| 2026-05-05 20:24 | -42.15541 | 145.28997 | 94 ft | 47 kts | 6° |
| 2026-05-05 20:25 | -42.15304 | 145.29065 | 93 ft | 26 kts | 2° |
| 2026-05-05 20:25 | -42.15218 | 145.29129 | 96 ft | 15 kts | 96° |
| 2026-05-05 20:25 | -42.15229 | 145.29205 | 94 ft | 6 kts | 94° |
| 2026-05-05 20:25 | -42.15240 | 145.29260 | 92 ft | 0 kts | 176° |